STS Fryderyk Chopin — SPS2298 — position and weather

sailwx.info

Track history (hours):
 
Tides and Currents Weather Stations Pressure Air Temp Water Temp Dewpoint Dewpoint Depression Visibility Wind Speed Wind Dir Waves Ship Positions

STS Fryderyk Chopin (Poland)

Ship's website: http://www.fryderykchopin.pl/

Last reported at 2018-Apr-24 04:45 UTC. Time now 2018-Apr-27 08:47 UTC.
Position N 39°39' W 027°02'.

Length 44 m; draft 4.2 m.

Type: Sailing vessel. MMSI: 261000290.

Date/timePositionNaut miles runAvg speedWind from/ knotsBaromVisibWave heightAir tempDewpointWater temp
2018-Apr-24 04:45N 39°39' W 027°02'2 6.1
2018-Apr-24 04:26N 39°38' W 027°04'3 5.5
2018-Apr-24 03:57N 39°37' W 027°07'9 5.5
2018-Apr-24 02:19N 39°31' W 027°16'2 5.7
2018-Apr-24 02:00N 39°30' W 027°18'3 5.1
2018-Apr-24 01:29N 39°28' W 027°20'2 4.7
2018-Apr-24 01:01N 39°27' W 027°22'2 4.4
2018-Apr-24 00:30N 39°25' W 027°25'2 4.4
2018-Apr-24 00:00N 39°24' W 027°27'2 4.6
2018-Apr-23 23:30N 39°22' W 027°29'2 4.6
2018-Apr-23 23:00N 39°21' W 027°31'3 5.4
2018-Apr-23 22:30N 39°19' W 027°34'3 6.0
2018-Apr-23 22:00N 39°17' W 027°37'3 5.8
2018-Apr-23 21:30N 39°15' W 027°40'3 6.4
2018-Apr-23 21:00N 39°13' W 027°43'3 6.8
2018-Apr-23 20:30N 39°11' W 027°46'3 7.0
2018-Apr-23 20:00N 39°08' W 027°49'3 6.8
2018-Apr-23 19:30N 39°06' W 027°53'3 6.4
2018-Apr-23 19:00N 39°05' W 027°56'2 3.4
2018-Apr-23 18:29N 39°03' W 027°58'0 0.0
2018-Apr-23 17:59N 39°03' W 027°58'0 0.0
2018-Apr-23 17:29N 39°03' W 027°58'0 0.1
2018-Apr-23 16:59N 39°03' W 027°58'0 0.0
2018-Apr-23 16:29N 39°03' W 027°58'0 0.0
2018-Apr-23 15:59N 39°03' W 027°58'0 0.0
2018-Apr-23 15:29N 39°03' W 027°58'0 0.0
2018-Apr-23 14:59N 39°03' W 027°58'0 0.0
2018-Apr-23 14:29N 39°03' W 027°58'0 0.0
2018-Apr-23 13:56N 39°03' W 027°58'0 0.0
2018-Apr-23 13:29N 39°03' W 027°58'0 0.0
2018-Apr-23 12:59N 39°03' W 027°58'0 0.0
2018-Apr-23 12:29N 39°03' W 027°58'0 0.0
2018-Apr-23 11:59N 39°03' W 027°58'0 0.0
2018-Apr-23 11:29N 39°03' W 027°58'0 0.0
2018-Apr-23 10:59N 39°03' W 027°58'0 0.0
2018-Apr-23 10:29N 39°03' W 027°58'0 0.0
2018-Apr-23 09:59N 39°03' W 027°58'2 3.7
2018-Apr-23 09:30N 39°02' W 027°56'2 4.0
2018-Apr-23 09:00N 38°60' W 027°56'2 3.5
2018-Apr-23 08:29N 38°59' W 027°58'2 4.0
2018-Apr-23 08:01N 38°58' W 028°00'2 3.3
2018-Apr-23 07:30N 38°57' W 028°02'1 2.7
2018-Apr-23 07:00N 38°57' W 028°04'1 2.8
2018-Apr-23 06:31N 38°56' W 028°06'1 2.8
2018-Apr-23 06:00N 38°55' W 028°07'1 2.7
2018-Apr-23 05:30N 38°55' W 028°08'1 2.5
2018-Apr-23 05:01N 38°54' W 028°10'1 2.4
2018-Apr-23 04:30N 38°53' W 028°11'1 2.3
2018-Apr-23 04:00N 38°52' W 028°12'8 1.4
2018-Apr-22 21:57N 38°47' W 028°20'1 1.4
2018-Apr-22 21:31N 38°47' W 028°21'2 3.3
2018-Apr-22 20:58N 38°46' W 028°22'4 8.7
2018-Apr-22 20:27N 38°42' W 028°26'4 8.9
2018-Apr-22 20:00N 38°39' W 028°29'5 8.6
2018-Apr-22 19:27N 38°36' W 028°34'4 7.9
2018-Apr-22 18:59N 38°32' W 028°36'1 0.3
2018-Apr-22 14:26N 38°32' W 028°38'0 0.0
2018-Apr-22 13:46N 38°32' W 028°38'0 0.0
2018-Apr-22 13:25N 38°32' W 028°38'0 0.0
2018-Apr-22 12:58N 38°32' W 028°38'0 0.0
2018-Apr-22 12:29N 38°32' W 028°38'0 0.0
2018-Apr-21 18:31N 38°32' W 028°38'0 0.0
2018-Apr-21 13:14N 38°32' W 028°38'0 0.0
2018-Apr-21 12:59N 38°32' W 028°38'0 0.0
2018-Apr-21 10:32N 38°32' W 028°38'0 0.0
2018-Apr-20 10:47N 38°32' W 028°38'0 0.2
2018-Apr-20 10:31N 38°32' W 028°37'0 0.8
2018-Apr-20 10:00N 38°32' W 028°37'0 0.2
2018-Apr-20 09:29N 38°32' W 028°37'0 0.0
2018-Apr-20 08:41N 38°32' W 028°37'0 1.6
2018-Apr-20 08:30N 38°32' W 028°37'0 0.1
2018-Apr-20 08:00N 38°32' W 028°37'3 5.8
2018-Apr-20 07:29N 38°30' W 028°40'4 9.1
2018-Apr-20 07:00N 38°30' W 028°46'5 9.2
2018-Apr-20 06:30N 38°30' W 028°52'4 9.0
2018-Apr-20 06:00N 38°30' W 028°57'4 8.8
2018-Apr-20 05:31N 38°31' W 029°03'4 7.1
2018-Apr-20 05:00N 38°31' W 029°08'1 1.8
2018-Apr-20 04:30N 38°31' W 029°09'1 2.2
2018-Apr-20 04:00N 38°31' W 029°10'1 2.8
2018-Apr-20 03:30N 38°31' W 029°12'1 2.5
2018-Apr-20 03:00N 38°31' W 029°13'1 2.4
2018-Apr-20 02:31N 38°31' W 029°15'2 3.3
2018-Apr-20 02:00N 38°31' W 029°17'1 2.7
2018-Apr-20 01:30N 38°31' W 029°19'1 2.8
2018-Apr-20 01:00N 38°31' W 029°21'2 3.1
2018-Apr-20 00:30N 38°31' W 029°23'1 2.9
2018-Apr-20 00:00N 38°31' W 029°25'1 2.8
2018-Apr-19 23:30N 38°31' W 029°26'1 2.6
2018-Apr-19 23:00N 38°31' W 029°28'1 2.1
2018-Apr-19 22:30N 38°31' W 029°29'2 3.4
2018-Apr-19 22:00N 38°31' W 029°32'2 3.6
2018-Apr-19 21:28N 38°31' W 029°34'2 3.9
2018-Apr-19 21:00N 38°31' W 029°36'2 4.4
2018-Apr-19 20:27N 38°30' W 029°39'3 4.6
2018-Apr-19 19:54N 38°30' W 029°43'2 4.9
2018-Apr-19 19:30N 38°30' W 029°45'3 5.0
2018-Apr-19 18:54N 38°30' W 029°49'2 4.9
2018-Apr-19 18:30N 38°31' W 029°52'2 4.3
2018-Apr-19 18:00N 38°31' W 029°54'2 4.3
2018-Apr-19 17:30N 38°31' W 029°57'2 4.7
2018-Apr-19 17:00N 38°32' W 029°60'3 5.2
2018-Apr-19 16:30N 38°32' W 030°03'4 5.7
2018-Apr-19 15:51N 38°32' W 030°08'2 6.1
2018-Apr-19 15:30N 38°32' W 030°11'  
Track history (hours):
 
Tides and Currents Weather Stations Pressure Air Temp Water Temp Dewpoint Dewpoint Depression Visibility Wind Speed Wind Dir Waves Ship Positions

STS Fryderyk Chopin (Poland)

Ship's website: http://www.fryderykchopin.pl/

Last reported at 2018-Apr-24 04:45 UTC. Time now 2018-Apr-27 08:47 UTC.
Position N 39°39' W 027°02'.

Length 44 m; draft 4.2 m.

Type: Sailing vessel. MMSI: 261000290.

Date/timePositionNaut miles runAvg speedWind from/ knotsBaromVisibWave heightAir tempDewpointWater temp
2018-Apr-24 04:45N 39°39' W 027°02'2 6.1
2018-Apr-24 04:26N 39°38' W 027°04'3 5.5
2018-Apr-24 03:57N 39°37' W 027°07'9 5.5
2018-Apr-24 02:19N 39°31' W 027°16'2 5.7
2018-Apr-24 02:00N 39°30' W 027°18'3 5.1
2018-Apr-24 01:29N 39°28' W 027°20'2 4.7
2018-Apr-24 01:01N 39°27' W 027°22'2 4.4
2018-Apr-24 00:30N 39°25' W 027°25'2 4.4
2018-Apr-24 00:00N 39°24' W 027°27'2 4.6
2018-Apr-23 23:30N 39°22' W 027°29'2 4.6
2018-Apr-23 23:00N 39°21' W 027°31'3 5.4
2018-Apr-23 22:30N 39°19' W 027°34'3 6.0
2018-Apr-23 22:00N 39°17' W 027°37'3 5.8
2018-Apr-23 21:30N 39°15' W 027°40'3 6.4
2018-Apr-23 21:00N 39°13' W 027°43'3 6.8
2018-Apr-23 20:30N 39°11' W 027°46'3 7.0
2018-Apr-23 20:00N 39°08' W 027°49'3 6.8
2018-Apr-23 19:30N 39°06' W 027°53'3 6.4
2018-Apr-23 19:00N 39°05' W 027°56'2 3.4
2018-Apr-23 18:29N 39°03' W 027°58'0 0.0
2018-Apr-23 17:59N 39°03' W 027°58'0 0.0
2018-Apr-23 17:29N 39°03' W 027°58'0 0.1
2018-Apr-23 16:59N 39°03' W 027°58'0 0.0
2018-Apr-23 16:29N 39°03' W 027°58'0 0.0
2018-Apr-23 15:59N 39°03' W 027°58'0 0.0
2018-Apr-23 15:29N 39°03' W 027°58'0 0.0
2018-Apr-23 14:59N 39°03' W 027°58'0 0.0
2018-Apr-23 14:29N 39°03' W 027°58'0 0.0
2018-Apr-23 13:56N 39°03' W 027°58'0 0.0
2018-Apr-23 13:29N 39°03' W 027°58'0 0.0
2018-Apr-23 12:59N 39°03' W 027°58'0 0.0
2018-Apr-23 12:29N 39°03' W 027°58'0 0.0
2018-Apr-23 11:59N 39°03' W 027°58'0 0.0
2018-Apr-23 11:29N 39°03' W 027°58'0 0.0
2018-Apr-23 10:59N 39°03' W 027°58'0 0.0
2018-Apr-23 10:29N 39°03' W 027°58'0 0.0
2018-Apr-23 09:59N 39°03' W 027°58'2 3.7
2018-Apr-23 09:30N 39°02' W 027°56'2 4.0
2018-Apr-23 09:00N 38°60' W 027°56'2 3.5
2018-Apr-23 08:29N 38°59' W 027°58'2 4.0
2018-Apr-23 08:01N 38°58' W 028°00'2 3.3
2018-Apr-23 07:30N 38°57' W 028°02'1 2.7
2018-Apr-23 07:00N 38°57' W 028°04'1 2.8
2018-Apr-23 06:31N 38°56' W 028°06'1 2.8
2018-Apr-23 06:00N 38°55' W 028°07'1 2.7
2018-Apr-23 05:30N 38°55' W 028°08'1 2.5
2018-Apr-23 05:01N 38°54' W 028°10'1 2.4
2018-Apr-23 04:30N 38°53' W 028°11'1 2.3
2018-Apr-23 04:00N 38°52' W 028°12'8 1.4
2018-Apr-22 21:57N 38°47' W 028°20'1 1.4
2018-Apr-22 21:31N 38°47' W 028°21'2 3.3
2018-Apr-22 20:58N 38°46' W 028°22'4 8.7
2018-Apr-22 20:27N 38°42' W 028°26'4 8.9
2018-Apr-22 20:00N 38°39' W 028°29'5 8.6
2018-Apr-22 19:27N 38°36' W 028°34'4 7.9
2018-Apr-22 18:59N 38°32' W 028°36'1 0.3
2018-Apr-22 14:26N 38°32' W 028°38'0 0.0
2018-Apr-22 13:46N 38°32' W 028°38'0 0.0
2018-Apr-22 13:25N 38°32' W 028°38'0 0.0
2018-Apr-22 12:58N 38°32' W 028°38'0 0.0
2018-Apr-22 12:29N 38°32' W 028°38'0 0.0
2018-Apr-21 18:31N 38°32' W 028°38'0 0.0
2018-Apr-21 13:14N 38°32' W 028°38'0 0.0
2018-Apr-21 12:59N 38°32' W 028°38'0 0.0
2018-Apr-21 10:32N 38°32' W 028°38'0 0.0
2018-Apr-20 10:47N 38°32' W 028°38'0 0.2
2018-Apr-20 10:31N 38°32' W 028°37'0 0.8
2018-Apr-20 10:00N 38°32' W 028°37'0 0.2
2018-Apr-20 09:29N 38°32' W 028°37'0 0.0
2018-Apr-20 08:41N 38°32' W 028°37'0 1.6
2018-Apr-20 08:30N 38°32' W 028°37'0 0.1
2018-Apr-20 08:00N 38°32' W 028°37'3 5.8
2018-Apr-20 07:29N 38°30' W 028°40'4 9.1
2018-Apr-20 07:00N 38°30' W 028°46'5 9.2
2018-Apr-20 06:30N 38°30' W 028°52'4 9.0
2018-Apr-20 06:00N 38°30' W 028°57'4 8.8
2018-Apr-20 05:31N 38°31' W 029°03'4 7.1
2018-Apr-20 05:00N 38°31' W 029°08'1 1.8
2018-Apr-20 04:30N 38°31' W 029°09'1 2.2
2018-Apr-20 04:00N 38°31' W 029°10'1 2.8
2018-Apr-20 03:30N 38°31' W 029°12'1 2.5
2018-Apr-20 03:00N 38°31' W 029°13'1 2.4
2018-Apr-20 02:31N 38°31' W 029°15'2 3.3
2018-Apr-20 02:00N 38°31' W 029°17'1 2.7
2018-Apr-20 01:30N 38°31' W 029°19'1 2.8
2018-Apr-20 01:00N 38°31' W 029°21'2 3.1
2018-Apr-20 00:30N 38°31' W 029°23'1 2.9
2018-Apr-20 00:00N 38°31' W 029°25'1 2.8
2018-Apr-19 23:30N 38°31' W 029°26'1 2.6
2018-Apr-19 23:00N 38°31' W 029°28'1 2.1
2018-Apr-19 22:30N 38°31' W 029°29'2 3.4
2018-Apr-19 22:00N 38°31' W 029°32'2 3.6
2018-Apr-19 21:28N 38°31' W 029°34'2 3.9
2018-Apr-19 21:00N 38°31' W 029°36'2 4.4
2018-Apr-19 20:27N 38°30' W 029°39'3 4.6
2018-Apr-19 19:54N 38°30' W 029°43'2 4.9
2018-Apr-19 19:30N 38°30' W 029°45'3 5.0
2018-Apr-19 18:54N 38°30' W 029°49'2 4.9
2018-Apr-19 18:30N 38°31' W 029°52'2 4.3
2018-Apr-19 18:00N 38°31' W 029°54'2 4.3
2018-Apr-19 17:30N 38°31' W 029°57'2 4.7
2018-Apr-19 17:00N 38°32' W 029°60'3 5.2
2018-Apr-19 16:30N 38°32' W 030°03'4 5.7
2018-Apr-19 15:51N 38°32' W 030°08'2 6.1
2018-Apr-19 15:30N 38°32' W 030°11'  

Dump ship's entire track history